Time;durP1;ratioP1;P1;durP2;ratioP2;P2;SDS_P1;SDS_P2;PMS_P1;PMS_P2;Temp;Humidity;BMP_temperature;BMP_pressure;BME280_temperature;BME280_humidity;BME280_pressure;Samples;Min_cycle;Max_cycle;Signal;HPM_P1;HPM_P2
2022/11/12 00:00:53;;;;;;;;;;;;;;;;;;;;;
2022/11/12 00:04:22;;;;;;;;;;;;;;;;;;;;;
2022/11/12 00:07:02;;;;;;;23.83;11.38;;;6.70;99.90;;;;;;6192686;22;20024;-93
2022/11/12 00:09:51;;;;;;;18.80;11.52;;;6.70;99.90;;;;;;6121060;22;20488;-93
2022/11/12 00:13:03;;;;;;;14.43;9.68;;;6.80;99.90;;;;;;6204488;22;20015;-93
2022/11/12 00:16:20;;;;;;;14.77;9.90;;;6.70;99.90;;;;;;6244656;22;20402;-94
2022/11/12 00:19:21;;;;;;;;;;;;;;;;;;;;;
2022/11/12 00:24:58;;;;;;;15.13;9.85;;;7.50;99.90;;;;;;6168798;22;20329;-93
2022/11/12 00:34:30;;;;;;;16.98;9.93;;;6.50;99.90;;;;;;6145024;22;20030;-93
2022/11/12 00:37:29;;;;;;;;;;;;;;;;;;;;;
2022/11/12 00:40:41;;;;;;;;;;;;;;;;;;;;;
2022/11/12 00:47:17;;;;;;;18.02;9.82;;;6.20;99.90;;;;;;6140017;22;20024;-94
2022/11/12 00:50:22;;;;;;;;;;;;;;;;;;;;;
2022/11/12 00:53:37;;;;;;;16.13;9.63;;;6.10;99.90;;;;;;6233510;22;20023;-94
2022/11/12 00:56:29;;;;;;;;;;;;;;;;;;;;;
2022/11/12 00:59:58;;;;;;;;;;;;;;;;;;;;;
2022/11/12 01:02:21;;;;;;;16.58;10.43;;;6.10;99.90;;;;;;6224214;22;20016;-93
2022/11/12 01:11:53;;;;;;;;;;;;;;;;;;;;;
2022/11/12 01:14:49;;;;;;;;;;;;;;;;;;;;;
2022/11/12 01:17:51;;;;;;;22.05;11.55;;;5.90;99.90;;;;;;6247756;22;20049;-93
2022/11/12 01:23:50;;;;;;;;;;;;;;;;;;;;;
2022/11/12 01:26:48;;;;;;;20.98;11.55;;;6.00;99.90;;;;;;6187019;22;20379;-93
2022/11/12 01:32:53;;;;;;;;;;;;;;;;;;;;;
2022/11/12 01:35:58;;;;;;;;;;;;;;;;;;;;;
2022/11/12 01:48:09;;;;;;;;;;;;;;;;;;;;;
2022/11/12 01:50:55;;;;;;;20.05;12.63;;;6.50;99.90;;;;;;6178561;22;20024;-93
2022/11/12 01:54:51;;;;;;;;;;;;;;;;;;;;;
2022/11/12 01:58:11;;;;;;;20.00;11.65;;;5.30;99.90;;;;;;6153673;22;20031;-93
2022/11/12 02:00:50;;;;;;;17.25;11.23;;;5.50;99.90;;;;;;6222323;22;20469;-93
2022/11/12 02:03:34;;;;;;;;;;;;;;;;;;;;;
2022/11/12 02:06:48;;;;;;;;;;;;;;;;;;;;;
2022/11/12 02:10:08;;;;;;;;;;;;;;;;;;;;;
2022/11/12 02:19:30;;;;;;;;;;;;;;;;;;;;;
2022/11/12 02:23:10;;;;;;;;;;;;;;;;;;;;;
2022/11/12 02:29:05;;;;;;;;;;;;;;;;;;;;;
2022/11/12 02:32:33;;;;;;;16.00;10.32;;;5.90;99.90;;;;;;6160611;22;20509;-93
2022/11/12 02:35:18;;;;;;;;;;;;;;;;;;;;;
2022/11/12 02:42:03;;;;;;;13.73;10.10;;;5.40;99.90;;;;;;6030422;22;20020;-93
2022/11/12 02:48:28;;;;;;;17.27;10.40;;;5.70;99.90;;;;;;6149731;22;20023;-92
2022/11/12 03:01:49;;;;;;;20.92;11.75;;;4.80;99.90;;;;;;6084389;22;20126;-91
2022/11/12 03:14:45;;;;;;;16.25;8.55;;;4.50;99.90;;;;;;6071067;22;20058;-92
2022/11/12 03:18:20;;;;;;;;;;;;;;;;;;;;;
2022/11/12 03:31:31;;;;;;;;;;;;;;;;;;;;;
2022/11/12 03:35:29;;;;;;;21.98;8.40;;;4.00;99.90;;;;;;6245737;22;20441;-91
2022/11/12 03:38:21;;;;;;;;;;;;;;;;;;;;;
2022/11/12 03:49:03;;;;;;;;;;;;;;;;;;;;;
2022/11/12 03:55:16;;;;;;;;;;;;;;;;;;;;;
2022/11/12 04:08:36;;;;;;;20.33;12.80;;;4.90;99.90;;;;;;6245395;22;20028;-93
2022/11/12 04:13:26;;;;;;;;;;;;;;;;;;;;;
2022/11/12 04:22:55;;;;;;;;;;;;;;;;;;;;;
2022/11/12 04:33:04;;;;;;;;;;;;;;;;;;;;;
2022/11/12 04:39:28;;;;;;;;;;;;;;;;;;;;;
2022/11/12 04:48:41;;;;;;;592.72;24.23;;;4.30;99.90;;;;;;6168466;22;20031;-93
2022/11/12 04:58:10;;;;;;;;;;;;;;;;;;;;;
2022/11/12 05:05:33;;;;;;;;;;;;;;;;;;;;;
2022/11/12 05:09:00;;;;;;;;;;;;;;;;;;;;;
2022/11/12 05:29:08;;;;;;;;;;;;;;;;;;;;;
2022/11/12 05:38:33;;;;;;;;;;;;;;;;;;;;;
2022/11/12 05:45:19;;;;;;;18.23;14.02;;;5.00;99.90;;;;;;6108425;22;20020;-93
2022/11/12 05:48:25;;;;;;;;;;;;;;;;;;;;;
2022/11/12 05:55:19;;;;;;;;;;;;;;;;;;;;;
2022/11/12 06:02:37;;;;;;;;;;;;;;;;;;;;;
2022/11/12 06:11:24;;;;;;;;;;;;;;;;;;;;;
2022/11/12 06:21:32;;;;;;;;;;;;;;;;;;;;;
2022/11/12 06:41:23;;;;;;;;;;;;;;;;;;;;;
2022/11/12 06:45:17;;;;;;;;;;;;;;;;;;;;;
2022/11/12 06:47:43;;;;;;;;;;;;;;;;;;;;;
2022/11/12 06:51:59;;;;;;;;;;;;;;;;;;;;;
2022/11/12 06:54:25;;;;;;;;;;;;;;;;;;;;;
2022/11/12 06:57:25;;;;;;;19.15;12.38;;;3.00;99.90;;;;;;6182829;22;20034;-93
2022/11/12 07:00:34;;;;;;;84.80;11.57;;;3.40;99.90;;;;;;6139472;22;20091;-92
2022/11/12 07:04:03;;;;;;;;;;;;;;;;;;;;;
2022/11/12 07:07:39;;;;;;;73.10;15.30;;;3.40;99.90;;;;;;6224463;22;20020;-95
2022/11/12 07:28:51;;;;;;;;;;;;;;;;;;;;;
2022/11/12 07:42:52;;;;;;;;;;;;;;;;;;;;;
2022/11/12 07:49:16;;;;;;;;;;;;;;;;;;;;;
2022/11/12 07:52:05;;;;;;;171.15;26.08;;;4.70;99.90;;;;;;6244519;22;20022;-93
2022/11/12 07:55:29;;;;;;;;;;;;;;;;;;;;;
2022/11/12 07:57:32;;;;;;;;;;;;;;;;;;;;;
2022/11/12 08:00:37;;;;;;;114.93;23.50;;;5.10;99.90;;;;;;6249177;22;20027;-92
2022/11/12 08:03:36;;;;;;;175.73;32.50;;;5.20;99.90;;;;;;6121677;22;20094;-94
2022/11/12 08:06:53;;;;;;;;;;;;;;;;;;;;;
2022/11/12 08:10:13;;;;;;;;;;;;;;;;;;;;;
2022/11/12 08:16:26;;;;;;;;;;;;;;;;;;;;;
2022/11/12 08:19:31;;;;;;;172.82;29.75;;;5.60;99.90;;;;;;6164350;22;20012;-93
2022/11/12 08:23:08;;;;;;;;;;;;;;;;;;;;;
2022/11/12 08:30:39;;;;;;;248.02;38.30;;;6.00;99.90;;;;;;6165328;22;20024;-93
2022/11/12 08:32:59;;;;;;;;;;;;;;;;;;;;;
2022/11/12 08:35:33;;;;;;;270.58;43.40;;;6.50;99.90;;;;;;6246542;22;20105;-93
2022/11/12 08:38:08;;;;;;;170.95;33.67;;;6.70;99.90;;;;;;6220549;22;20020;-93
2022/11/12 08:40:38;;;;;;;221.82;41.45;;;7.10;99.90;;;;;;6220564;22;20020;-93
2022/11/12 08:43:07;;;;;;;162.98;38.85;;;6.60;99.90;;;;;;6222442;22;20020;-93
2022/11/12 08:45:49;;;;;;;;;;;;;;;;;;;;;
2022/11/12 08:48:40;;;;;;;247.98;43.42;;;6.60;99.90;;;;;;6244455;22;20015;-92
2022/11/12 08:55:57;;;;;;;;;;;;;;;;;;;;;
2022/11/12 08:58:43;;;;;;;163.43;36.75;;;6.50;99.90;;;;;;6173341;22;20035;-92
2022/11/12 09:01:51;;;;;;;172.32;35.08;;;7.10;99.90;;;;;;6221033;22;20058;-92
2022/11/12 09:04:40;;;;;;;160.90;34.38;;;7.10;99.90;;;;;;6219782;22;20012;-91
2022/11/12 09:07:05;;;;;;;145.52;34.20;;;7.20;99.90;;;;;;6220173;22;20027;-94
2022/11/12 09:09:34;;;;;;;271.63;40.75;;;7.30;99.90;;;;;;6219645;22;20011;-93
2022/11/12 09:15:22;;;;;;;146.75;35.67;;;7.40;99.90;;;;;;6149169;22;20451;-91
2022/11/12 09:18:00;;;;;;;201.80;38.67;;;7.70;99.90;;;;;;6240650;22;20136;-92
2022/11/12 09:20:55;;;;;;;136.38;33.60;;;7.50;99.90;;;;;;6205034;22;20115;-93
2022/11/12 09:23:46;;;;;;;120.20;35.22;;;7.70;99.90;;;;;;6221070;22;20019;-92
2022/11/12 09:26:20;;;;;;;395.42;51.72;;;7.60;99.90;;;;;;6211100;22;20395;-95
2022/11/12 09:29:01;;;;;;;;;;;;;;;;;;;;;
2022/11/12 09:32:16;;;;;;;348.88;46.13;;;7.90;99.90;;;;;;6265518;22;20347;-94
2022/11/12 09:34:44;;;;;;;201.90;39.22;;;8.00;99.90;;;;;;6213870;22;20019;-94
2022/11/12 09:37:10;;;;;;;137.15;34.60;;;8.00;99.90;;;;;;6221410;22;20330;-93
2022/11/12 09:39:41;;;;;;;134.10;32.00;;;7.90;99.90;;;;;;6222092;22;20058;-93
2022/11/12 09:42:14;;;;;;;137.20;35.15;;;8.10;99.90;;;;;;6222346;22;20099;-93
2022/11/12 09:44:42;;;;;;;383.40;46.95;;;8.10;99.90;;;;;;6221381;22;20019;-93
2022/11/12 09:47:29;;;;;;;182.05;35.28;;;7.90;99.90;;;;;;6222304;22;20054;-93
2022/11/12 09:50:12;;;;;;;129.55;32.58;;;8.00;99.90;;;;;;6221950;22;20019;-95
2022/11/12 09:52:49;;;;;;;;;;;8.00;99.90;;;;;;6221776;22;20055;-94
2022/11/12 09:55:30;;;;;;;259.40;38.00;;;8.10;99.90;;;;;;6222603;22;20330;-93
2022/11/12 09:57:58;;;;;;;214.95;36.53;;;8.20;99.90;;;;;;6222296;22;20012;-93
2022/11/12 10:00:57;;;;;;;;;;;;;;;;;;;;;
2022/11/12 10:03:39;;;;;;;176.30;36.22;;;8.30;99.90;;;;;;6249674;22;20003;-93
2022/11/12 10:06:16;;;;;;;132.10;32.22;;;8.20;99.90;;;;;;6222240;22;20065;-93
2022/11/12 10:09:17;;;;;;;131.63;31.75;;;8.30;99.90;;;;;;6222372;22;20023;-93
2022/11/12 10:18:12;;;;;;;124.20;29.75;;;8.40;99.90;;;;;;6251251;22;20019;-95
2022/11/12 10:20:54;;;;;;;96.30;31.55;;;8.10;99.90;;;;;;6221902;22;20486;-92
2022/11/12 10:23:31;;;;;;;71.55;28.77;;;8.30;99.90;;;;;;6221608;22;20051;-90
2022/11/12 10:25:59;;;;;;;131.20;31.65;;;9.10;99.90;;;;;;6221881;22;20390;-90
2022/11/12 10:28:33;;;;;;;133.65;30.40;;;8.20;99.90;;;;;;6221665;22;20467;-92
2022/11/12 10:31:01;;;;;;;;;;;8.30;99.90;;;;;;6222065;22;20347;-92
2022/11/12 10:33:35;;;;;;;79.35;26.75;;;8.30;99.90;;;;;;6220215;22;19919;-92
2022/11/12 10:36:20;;;;;;;218.23;36.92;;;8.40;99.90;;;;;;6221661;22;20019;-91
2022/11/12 10:38:52;;;;;;;115.53;29.58;;;8.30;99.90;;;;;;6220805;22;20432;-93
2022/11/12 10:41:29;;;;;;;81.68;28.30;;;8.50;99.90;;;;;;6221095;22;20011;-92
2022/11/12 10:44:05;;;;;;;106.82;28.13;;;8.50;99.90;;;;;;6221391;22;20096;-92
2022/11/12 10:46:35;;;;;;;81.72;26.33;;;8.50;99.90;;;;;;6221612;22;20123;-92
2022/11/12 10:49:02;;;;;;;100.53;28.50;;;8.40;99.90;;;;;;6220376;22;20020;-92
2022/11/12 10:51:40;;;;;;;92.38;27.55;;;8.40;99.90;;;;;;6221500;22;20353;-91
2022/11/12 10:54:20;;;;;;;168.75;30.10;;;8.60;99.90;;;;;;6222517;22;20000;-92
2022/11/12 10:56:48;;;;;;;102.88;24.48;;;8.50;99.90;;;;;;6222221;22;20016;-94
2022/11/12 10:59:36;;;;;;;;;;;;;;;;;;;;;
2022/11/12 11:02:02;;;;;;;150.27;25.55;;;8.50;99.90;;;;;;6246002;22;20392;-88
2022/11/12 11:04:34;;;;;;;170.63;27.52;;;8.40;99.90;;;;;;6220852;22;20047;-88
2022/11/12 11:07:24;;;;;;;;;;;;;;;;;;;;;
2022/11/12 11:09:59;;;;;;;165.20;28.17;;;8.30;99.90;;;;;;6247171;22;20023;-88
2022/11/12 11:12:32;;;;;;;121.45;25.95;;;7.80;99.90;;;;;;6222540;22;20019;-94
2022/11/12 11:15:19;;;;;;;87.95;23.60;;;8.40;99.90;;;;;;6222030;22;20008;-89
2022/11/12 11:17:45;;;;;;;112.60;25.40;;;8.50;99.90;;;;;;6219689;22;20512;-88
2022/11/12 11:20:24;;;;;;;95.47;25.58;;;9.40;99.90;;;;;;6220988;22;20020;-89
2022/11/12 11:23:01;;;;;;;85.50;25.75;;;8.50;99.90;;;;;;6219742;22;20023;-88
2022/11/12 11:25:28;;;;;;;125.97;25.45;;;8.40;99.90;;;;;;6221572;22;20027;-90
2022/11/12 11:27:55;;;;;;;98.43;28.23;;;8.50;99.90;;;;;;6221126;22;20016;-89
2022/11/12 11:30:22;;;;;;;102.05;26.80;;;8.30;99.90;;;;;;6221699;22;20026;-90
2022/11/12 11:33:15;;;;;;;75.82;25.88;;;8.40;99.90;;;;;;6222005;22;20026;-92
2022/11/12 11:35:52;;;;;;;101.93;27.20;;;8.30;99.90;;;;;;6222276;22;20028;-92
2022/11/12 11:38:37;;;;;;;64.68;25.77;;;8.40;99.90;;;;;;6221683;22;20098;-91
2022/11/12 11:41:30;;;;;;;168.00;28.95;;;8.40;99.90;;;;;;6224901;22;20020;-93
2022/11/12 11:44:08;;;;;;;194.13;33.30;;;8.30;99.90;;;;;;6223608;22;20024;-91
2022/11/12 11:46:47;;;;;;;210.98;28.65;;;8.30;99.90;;;;;;6220742;22;20041;-92
2022/11/12 11:50:09;;;;;;;123.10;31.50;;;8.40;99.90;;;;;;6221336;22;20019;-92
2022/11/12 11:52:43;;;;;;;119.93;29.60;;;8.50;99.90;;;;;;6244485;22;20026;-93
2022/11/12 11:55:30;;;;;;;92.05;29.75;;;8.40;99.90;;;;;;6221869;22;20020;-92
2022/11/12 11:58:11;;;;;;;88.50;32.15;;;8.40;99.90;;;;;;6220783;22;20343;-92
2022/11/12 12:00:53;;;;;;;67.95;29.63;;;8.40;99.90;;;;;;6222674;22;20051;-93
2022/11/12 12:03:23;;;;;;;153.95;39.45;;;8.50;99.90;;;;;;6224846;22;20019;-92
2022/11/12 12:06:18;;;;;;;134.38;31.83;;;9.40;99.90;;;;;;6222622;22;20102;-91
2022/11/12 12:09:14;;;;;;;109.88;35.95;;;8.50;99.90;;;;;;6222475;22;20023;-92
2022/11/12 12:11:46;;;;;;;99.88;35.95;;;8.30;99.90;;;;;;6221927;22;20463;-91
2022/11/12 12:14:51;;;;;;;61.00;31.85;;;9.50;99.90;;;;;;6222148;22;20061;-91
2022/11/12 12:17:35;;;;;;;60.70;33.53;;;8.70;99.90;;;;;;6221851;22;20024;-90
2022/11/12 12:20:18;;;;;;;86.57;38.55;;;8.60;99.90;;;;;;6222087;22;20019;-91
2022/11/12 12:22:56;;;;;;;64.20;34.83;;;8.60;99.90;;;;;;6221687;22;20462;-92
2022/11/12 12:25:31;;;;;;;75.03;36.42;;;8.90;99.90;;;;;;6222969;22;20020;-92
2022/11/12 12:28:11;;;;;;;62.42;32.95;;;8.80;99.90;;;;;;6221317;22;20015;-92
2022/11/12 12:34:19;;;;;;;;;;;;;;;;;;;;;
2022/11/12 12:37:29;;;;;;;59.85;34.55;;;8.70;99.90;;;;;;6239828;22;20022;-93
2022/11/12 12:40:30;;;;;;;54.17;33.40;;;9.20;99.90;;;;;;6246943;22;20340;-91
2022/11/12 12:43:13;;;;;;;57.55;31.42;;;9.20;99.90;;;;;;6221603;22;20391;-88
2022/11/12 12:46:46;;;;;;;50.42;30.00;;;9.30;99.90;;;;;;6223957;22;20020;-92
2022/11/12 12:48:50;;;;;;;50.72;30.13;;;9.40;99.90;;;;;;6220230;22;20352;-93
2022/11/12 12:51:19;;;;;;;43.10;30.20;;;9.40;99.90;;;;;;6223127;22;20047;-94
2022/11/12 12:53:47;;;;;;;50.25;32.22;;;9.60;99.90;;;;;;6222127;22;20053;-94
2022/11/12 12:56:13;;;;;;;49.00;30.73;;;9.20;99.90;;;;;;6225255;22;20020;-93
2022/11/12 12:58:42;;;;;;;46.80;31.35;;;9.20;99.90;;;;;;6227352;22;20023;-94
2022/11/12 13:01:31;;;;;;;55.38;31.92;;;9.40;99.90;;;;;;6224710;22;20024;-92
2022/11/12 13:04:07;;;;;;;52.92;33.20;;;9.20;99.90;;;;;;6221561;22;20022;-91
2022/11/12 13:06:40;;;;;;;47.75;32.38;;;9.20;99.90;;;;;;6221222;22;20444;-90
2022/11/12 13:09:32;;;;;;;44.78;30.88;;;9.30;99.90;;;;;;6221636;22;20015;-90
2022/11/12 13:15:03;;;;;;;;;;;;;;;;;;;;;
2022/11/12 13:17:47;;;;;;;51.42;31.60;;;9.30;99.90;;;;;;6247829;22;20022;-92
2022/11/12 13:20:16;;;;;;;46.55;31.30;;;9.40;99.90;;;;;;6221708;22;20051;-91
2022/11/12 13:22:41;;;;;;;48.22;32.60;;;9.40;99.90;;;;;;6221843;22;20018;-90
2022/11/12 13:25:07;;;;;;;40.88;29.27;;;9.70;99.90;;;;;;6221054;22;20047;-91
2022/11/12 13:28:00;;;;;;;42.42;28.98;;;9.50;99.90;;;;;;6221782;22;20016;-91
2022/11/12 13:31:20;;;;;;;;;;;;;;;;;;;;;
2022/11/12 13:33:38;;;;;;;48.47;30.90;;;9.50;99.90;;;;;;6244052;22;20020;-91
2022/11/12 13:36:56;;;;;;;44.38;29.25;;;9.90;99.90;;;;;;6222010;22;20023;-92
2022/11/12 13:39:35;;;;;;;;;;;;;;;;;;;;;
2022/11/12 13:45:59;;;;;;;;;;;;;;;;;;;;;
2022/11/12 13:48:31;;;;;;;44.30;27.63;;;9.70;99.90;;;;;;6222434;22;20405;-91
2022/11/12 13:51:25;;;;;;;40.22;28.77;;;9.60;99.90;;;;;;6220981;22;20015;-92
2022/11/12 13:54:05;;;;;;;42.22;27.75;;;9.60;99.90;;;;;;6224340;22;20023;-91
2022/11/12 13:56:44;;;;;;;;;;;;;;;;;;;;;
2022/11/12 13:59:18;;;;;;;46.03;32.90;;;9.70;99.90;;;;;;6247904;22;20016;-91
2022/11/12 14:02:04;;;;;;;43.88;30.88;;;9.80;99.90;;;;;;6223238;22;20015;-91
2022/11/12 14:04:47;;;;;;;;;;;;;;;;;;;;;
2022/11/12 14:07:38;;;;;;;38.97;26.35;;;9.50;99.90;;;;;;6249073;22;20094;-92
2022/11/12 14:10:35;;;;;;;35.78;25.75;;;9.60;99.90;;;;;;6217929;23;20027;-92
2022/11/12 14:13:34;;;;;;;37.95;25.58;;;9.00;99.90;;;;;;6215335;23;20020;-91
2022/11/12 14:16:07;;;;;;;38.28;26.75;;;9.50;99.90;;;;;;6179006;23;20103;-91
2022/11/12 14:19:18;;;;;;;41.38;26.27;;;9.50;99.90;;;;;;6220460;22;20102;-93
2022/11/12 14:22:12;;;;;;;38.85;26.75;;;9.30;99.90;;;;;;6224052;22;20583;-92
2022/11/12 14:24:41;;;;;;;43.20;28.65;;;9.40;99.90;;;;;;6223114;22;20015;-91
2022/11/12 14:27:33;;;;;;;39.60;27.52;;;9.80;99.90;;;;;;6225450;22;20020;-91
2022/11/12 14:30:15;;;;;;;37.72;26.05;;;10.10;99.90;;;;;;6222794;22;20022;-92
2022/11/12 14:32:55;;;;;;;45.55;28.38;;;9.40;99.90;;;;;;6224293;22;20077;-93
2022/11/12 14:35:59;;;;;;;40.58;28.58;;;9.50;99.90;;;;;;6223314;22;20099;-92
2022/11/12 14:38:30;;;;;;;44.33;28.45;;;9.40;99.90;;;;;;6244924;22;20023;-92
2022/11/12 14:41:23;;;;;;;41.55;28.95;;;9.50;99.90;;;;;;6223428;22;20015;-92
2022/11/12 14:43:55;;;;;;;45.22;28.98;;;9.30;99.90;;;;;;6194523;22;20016;-91
2022/11/12 14:46:44;;;;;;;42.20;27.70;;;9.20;99.90;;;;;;6225233;22;20329;-91
2022/11/12 14:49:35;;;;;;;43.00;27.92;;;9.20;99.90;;;;;;6223304;22;20108;-93
2022/11/12 14:52:28;;;;;;;43.92;27.73;;;9.20;99.90;;;;;;6223093;22;20386;-91
2022/11/12 14:54:59;;;;;;;;;;;8.80;99.90;;;;;;6224866;22;20081;-92
2022/11/12 14:57:27;;;;;;;44.70;29.88;;;9.20;99.90;;;;;;6225075;22;19962;-91
2022/11/12 14:59:56;;;;;;;40.97;28.65;;;9.20;99.90;;;;;;6222652;22;20020;-93
2022/11/12 15:02:53;;;;;;;;;;;;;;;;;;;;;
2022/11/12 15:05:22;;;;;;;43.75;29.48;;;8.90;99.90;;;;;;6248759;22;20016;-91
2022/11/12 15:08:00;;;;;;;51.90;31.67;;;8.80;99.90;;;;;;6221923;22;20027;-91
2022/11/12 15:10:35;;;;;;;49.70;32.10;;;8.80;99.90;;;;;;6219075;22;20340;-92
2022/11/12 15:13:16;;;;;;;51.15;29.92;;;8.90;99.90;;;;;;6222611;22;20023;-91
2022/11/12 15:16:04;;;;;;;43.47;30.85;;;8.70;99.90;;;;;;6224026;22;20012;-92
2022/11/12 15:19:04;;;;;;;;;;;;;;;;;;;;;
2022/11/12 15:22:15;;;;;;;;;;;;;;;;;;;;;
2022/11/12 15:24:44;;;;;;;51.90;31.13;;;8.70;99.90;;;;;;6245855;22;20028;-89
2022/11/12 15:27:58;;;;;;;;;;;;;;;;;;;;;
2022/11/12 15:31:15;;;;;;;49.55;30.42;;;8.60;99.90;;;;;;6153085;22;20011;-90
2022/11/12 15:34:31;;;;;;;54.40;30.52;;;8.50;99.90;;;;;;6247600;22;20070;-92
2022/11/12 15:40:23;;;;;;;49.85;31.23;;;8.40;99.90;;;;;;6125261;22;20023;-90
2022/11/12 15:43:23;;;;;;;;;;;;;;;;;;;;;
2022/11/12 15:46:06;;;;;;;;;;;;;;;;;;;;;
2022/11/12 15:53:07;;;;;;;;;;;;;;;;;;;;;
2022/11/12 15:56:20;;;;;;;;;;;;;;;;;;;;;
2022/11/12 15:59:00;;;;;;;50.63;32.25;;;7.90;99.90;;;;;;6163228;22;20039;-92
2022/11/12 16:01:36;;;;;;;;;;;;;;;;;;;;;
2022/11/12 16:04:23;;;;;;;;;;;;;;;;;;;;;
2022/11/12 16:07:05;;;;;;;52.15;32.65;;;7.80;99.90;;;;;;6202810;22;20034;-92
2022/11/12 16:09:37;;;;;;;48.85;31.65;;;7.70;99.90;;;;;;6222225;22;20340;-91
2022/11/12 16:12:19;;;;;;;;;;;;;;;;;;;;;
2022/11/12 16:14:45;;;;;;;50.75;33.33;;;8.10;99.90;;;;;;6237947;22;20020;-94
2022/11/12 16:18:46;;;;;;;76.13;38.25;;;7.50;99.90;;;;;;6226111;22;20010;-96
2022/11/12 16:20:52;;;;;;;44.90;29.77;;;7.50;99.90;;;;;;6154884;22;20024;-94
2022/11/12 16:23:18;;;;;;;51.92;33.47;;;8.00;99.90;;;;;;6223653;22;20023;-95
2022/11/12 16:25:44;;;;;;;54.83;34.80;;;7.30;99.90;;;;;;6222309;22;20012;-91
2022/11/12 16:28:15;;;;;;;57.67;34.60;;;7.30;99.90;;;;;;6222929;22;20340;-94
2022/11/12 16:30:41;;;;;;;47.78;31.40;;;7.40;99.90;;;;;;6222377;22;20023;-94
2022/11/12 16:33:10;;;;;;;44.50;32.03;;;7.30;99.90;;;;;;6222180;22;20016;-95
2022/11/12 16:35:36;;;;;;;51.95;32.13;;;7.20;99.90;;;;;;6222328;22;20059;-94
2022/11/12 16:38:01;;;;;;;51.35;31.88;;;7.40;99.90;;;;;;6222410;22;20020;-94
2022/11/12 16:40:29;;;;;;;49.72;31.17;;;7.50;99.90;;;;;;6222674;22;20019;-95
2022/11/12 16:42:55;;;;;;;53.95;32.88;;;7.20;99.90;;;;;;6223039;22;20023;-95
2022/11/12 16:45:24;;;;;;;57.60;34.05;;;7.20;99.90;;;;;;6223421;22;20016;-95
2022/11/12 16:47:53;;;;;;;40.67;27.25;;;7.00;99.90;;;;;;6221824;22;20325;-95
2022/11/12 16:50:22;;;;;;;62.78;34.83;;;7.10;99.90;;;;;;6223628;22;20012;-94
2022/11/12 16:52:48;;;;;;;53.78;32.03;;;7.30;99.90;;;;;;6221851;22;20072;-95
2022/11/12 16:55:15;;;;;;;48.67;31.05;;;6.90;99.90;;;;;;6217720;23;20358;-95
2022/11/12 16:57:41;;;;;;;44.75;29.73;;;7.20;99.90;;;;;;6221740;22;20019;-95
2022/11/12 17:00:12;;;;;;;53.40;30.15;;;7.10;99.90;;;;;;6222209;22;20115;-96
2022/11/12 17:02:38;;;;;;;55.35;33.08;;;6.80;99.90;;;;;;6221229;22;20044;-95
2022/11/12 17:05:09;;;;;;;62.33;33.15;;;7.00;99.90;;;;;;6222607;22;20027;-94
2022/11/12 17:07:34;;;;;;;46.28;27.77;;;6.90;99.90;;;;;;6222443;22;20022;-94
2022/11/12 17:10:00;;;;;;;44.50;28.88;;;6.70;99.90;;;;;;6222707;22;20051;-95
2022/11/12 17:12:26;;;;;;;46.78;27.40;;;7.40;99.90;;;;;;6222509;22;20439;-95
2022/11/12 17:14:51;;;;;;;47.28;27.85;;;6.70;99.90;;;;;;6222077;22;20081;-94
2022/11/12 17:17:17;;;;;;;53.22;30.20;;;7.00;99.90;;;;;;6222452;22;20024;-94
2022/11/12 17:19:43;;;;;;;43.83;28.60;;;7.20;99.90;;;;;;6221886;22;20022;-94
2022/11/12 17:22:11;;;;;;;41.38;26.80;;;6.60;99.90;;;;;;6222536;22;20436;-94
2022/11/12 17:24:37;;;;;;;44.35;27.17;;;6.70;99.90;;;;;;6222015;22;20098;-95
2022/11/12 17:27:03;;;;;;;53.50;28.42;;;6.70;99.90;;;;;;6222560;22;20066;-94
2022/11/12 17:29:31;;;;;;;45.97;28.52;;;7.40;99.90;;;;;;6223058;22;20157;-95
2022/11/12 17:31:57;;;;;;;48.38;28.55;;;7.00;99.90;;;;;;6225108;22;20011;-93
2022/11/12 17:34:23;;;;;;;44.15;27.38;;;6.60;99.90;;;;;;6224118;22;20419;-92
2022/11/12 17:36:49;;;;;;;52.00;29.52;;;6.60;99.90;;;;;;6223807;22;20055;-93
2022/11/12 17:39:15;;;;;;;38.70;25.25;;;6.70;99.90;;;;;;6224464;22;20019;-93
2022/11/12 17:41:41;;;;;;;42.88;26.50;;;6.50;99.90;;;;;;6224209;22;20093;-93
2022/11/12 17:44:06;;;;;;;44.60;25.38;;;7.40;99.90;;;;;;6223459;22;20022;-92
2022/11/12 17:46:33;;;;;;;41.47;25.58;;;6.90;99.90;;;;;;6224185;22;20020;-92
2022/11/12 17:48:58;;;;;;;42.40;27.33;;;6.50;99.90;;;;;;6223611;22;20019;-92
2022/11/12 17:51:26;;;;;;;34.67;23.33;;;6.80;99.90;;;;;;6224100;22;20085;-94
2022/11/12 17:53:52;;;;;;;38.45;23.70;;;7.30;99.90;;;;;;6223231;22;20026;-93
2022/11/12 17:56:21;;;;;;;42.78;25.10;;;6.30;99.90;;;;;;6224211;22;20023;-92
2022/11/12 17:58:48;;;;;;;46.22;25.30;;;6.70;99.90;;;;;;6223385;22;20098;-93
2022/11/12 18:01:22;;;;;;;40.58;25.95;;;6.40;99.90;;;;;;6224225;22;20061;-93
2022/11/12 18:03:51;;;;;;;63.30;30.75;;;6.30;99.90;;;;;;6222874;22;20444;-93
2022/11/12 18:06:20;;;;;;;40.47;27.80;;;6.20;99.90;;;;;;6229481;22;20019;-93
2022/11/12 18:08:59;;;;;;;46.30;28.05;;;6.20;99.90;;;;;;6153194;22;20017;-96
2022/11/12 18:11:38;;;;;;;53.55;27.67;;;6.30;99.90;;;;;;6247170;22;20065;-96
2022/11/12 18:33:10;;;;;;;57.08;30.10;;;6.10;99.90;;;;;;6239221;22;20014;-96
2022/11/12 18:44:30;;;;;;;35.17;23.52;;;6.00;99.90;;;;;;6290107;22;20073;-96
2022/11/12 18:47:08;;;;;;;39.38;25.75;;;5.80;99.90;;;;;;6247146;22;20024;-96
2022/11/12 18:49:51;;;;;;;35.42;24.45;;;6.90;99.90;;;;;;6248614;22;20019;-96
2022/11/12 18:52:17;;;;;;;39.22;24.60;;;5.70;99.90;;;;;;6237141;22;20020;-96
2022/11/12 18:54:55;;;;;;;40.53;24.70;;;5.80;99.90;;;;;;6232404;22;20020;-96
2022/11/12 18:57:24;;;;;;;34.97;22.27;;;5.90;99.90;;;;;;6239834;22;20010;-96
2022/11/12 18:59:53;;;;;;;30.50;22.05;;;5.30;99.90;;;;;;6233643;22;20023;-96
2022/11/12 19:02:19;;;;;;;36.00;24.13;;;5.70;99.90;;;;;;6259271;22;20064;-96
2022/11/12 19:04:54;;;;;;;40.92;23.67;;;6.50;99.90;;;;;;6236970;22;20067;-96
2022/11/12 19:07:22;;;;;;;36.90;23.90;;;5.70;99.90;;;;;;6293041;22;20051;-96
2022/11/12 19:10:08;;;;;;;31.20;23.27;;;5.70;99.90;;;;;;6247286;22;20015;-96
2022/11/12 19:13:14;;;;;;;43.60;24.98;;;5.70;99.90;;;;;;6276991;22;20023;-96
2022/11/12 19:15:40;;;;;;;39.10;24.60;;;5.60;99.90;;;;;;6099922;23;20034;-96
2022/11/12 19:18:07;;;;;;;37.10;23.98;;;5.40;99.90;;;;;;6195767;22;20447;-96
2022/11/12 19:20:34;;;;;;;34.53;21.73;;;6.50;99.90;;;;;;6228221;22;20016;-96
2022/11/12 19:23:40;;;;;;;45.15;27.00;;;5.60;99.90;;;;;;6234105;22;20211;-96
2022/11/12 19:26:19;;;;;;;34.53;24.52;;;5.50;99.90;;;;;;6275804;22;20016;-96
2022/11/12 19:29:29;;;;;;;40.60;23.35;;;5.10;99.90;;;;;;6286574;22;20047;-96
2022/11/12 19:32:26;;;;;;;37.50;25.25;;;5.50;99.90;;;;;;6262297;22;20023;-96
2022/11/12 19:34:55;;;;;;;41.53;25.75;;;5.50;99.90;;;;;;6213743;22;20015;-96
2022/11/12 19:37:22;;;;;;;44.75;27.70;;;5.70;99.90;;;;;;6240665;22;20023;-95
2022/11/12 19:39:57;;;;;;;42.20;26.40;;;5.70;99.90;;;;;;6258663;22;20092;-96
2022/11/12 19:42:25;;;;;;;43.63;26.42;;;5.20;99.90;;;;;;6228696;22;20016;-95
2022/11/12 19:45:28;;;;;;;39.50;25.13;;;5.90;99.90;;;;;;6241305;22;20034;-96
2022/11/12 19:48:00;;;;;;;38.47;24.15;;;5.50;99.90;;;;;;6232264;22;20078;-96
2022/11/12 19:50:43;;;;;;;;;;;;;;;;;;;;;
2022/11/12 19:53:32;;;;;;;41.05;25.67;;;5.60;99.90;;;;;;6222771;22;20035;-96
2022/11/12 19:56:02;;;;;;;43.88;24.85;;;5.20;99.90;;;;;;6220330;23;20112;-96
2022/11/12 19:58:30;;;;;;;38.25;24.13;;;6.40;99.90;;;;;;6194469;23;20453;-96
2022/11/12 20:01:50;;;;;;;36.25;24.80;;;5.60;99.90;;;;;;6202030;23;20510;-96
2022/11/12 20:03:59;;;;;;;43.88;27.80;;;5.60;99.90;;;;;;6224225;23;20056;-96
2022/11/12 20:07:06;;;;;;;;;;;;;;;;;;;;;
2022/11/12 20:10:05;;;;;;;45.05;27.75;;;5.50;99.90;;;;;;6234074;23;20110;-96
2022/11/12 20:12:55;;;;;;;35.30;24.60;;;5.20;99.90;;;;;;6265109;22;20020;-96
2022/11/12 20:16:11;;;;;;;42.88;26.45;;;5.50;99.90;;;;;;6208533;23;20075;-95
2022/11/12 20:19:00;;;;;;;38.90;25.10;;;5.50;99.90;;;;;;6232790;23;20103;-96
2022/11/12 20:21:44;;;;;;;40.45;26.08;;;5.60;99.90;;;;;;6208277;23;20047;-96
2022/11/12 20:24:12;;;;;;;38.35;26.77;;;5.60;99.90;;;;;;6194800;23;20020;-96
2022/11/12 20:26:39;;;;;;;45.83;29.58;;;5.50;99.90;;;;;;6194616;23;20105;-96
2022/11/12 20:29:26;;;;;;;46.50;30.20;;;5.60;99.90;;;;;;6193855;23;20026;-96
2022/11/12 20:32:02;;;;;;;45.63;28.15;;;5.60;99.90;;;;;;6214794;23;20127;-96
2022/11/12 20:34:31;;;;;;;51.08;30.10;;;5.50;99.90;;;;;;6195384;23;20024;-96
2022/11/12 20:36:57;;;;;;;48.33;29.10;;;5.60;99.90;;;;;;6200232;23;20431;-96
2022/11/12 20:39:26;;;;;;;37.38;27.70;;;5.50;99.90;;;;;;6198707;23;20115;-96
2022/11/12 20:41:51;;;;;;;46.15;28.98;;;5.60;99.90;;;;;;6192226;23;20376;-96
2022/11/12 20:44:17;;;;;;;44.97;27.15;;;5.60;99.90;;;;;;6193574;23;20016;-96
2022/11/12 20:46:45;;;;;;;41.65;28.10;;;5.60;99.90;;;;;;6193309;23;20078;-95
2022/11/12 20:49:13;;;;;;;43.55;26.75;;;6.10;99.90;;;;;;6193276;23;20095;-96
2022/11/12 20:51:39;;;;;;;45.55;27.77;;;5.40;99.90;;;;;;6194292;23;20070;-96
2022/11/12 20:54:05;;;;;;;42.30;27.48;;;6.30;99.90;;;;;;6192979;23;20016;-96
2022/11/12 20:56:40;;;;;;;45.38;27.13;;;6.20;99.90;;;;;;6197894;23;20008;-96
2022/11/12 20:59:08;;;;;;;35.92;24.08;;;5.50;99.90;;;;;;6200196;23;20016;-96